Terminal Aerodrome Forecast
Issued by NWS Buffalo, NY

Home | Current Version | Previous Version | Text Only | Print | Product List | Glossary On
Versions: 1 2 3 4 5 6 7 8 9 10 11 12 13 14 15 16 17 18 19 20 21 22 23 24 25
000
FTUS41 KBUF 272109 AAA
TAFROC
TAF AMD
KROC 272109Z 2721/2818 25012G20KT P6SM SCT050 SCT250
     FM280100 20010KT P6SM VCTS BKN070CB
     FM280500 24010KT 6SM BR OVC070
     FM280800 24011KT P6SM BKN080
     FM281300 27015KT P6SM BKN040=

USA.gov is the U.S. government's official web portal to all federal, state and local government web resources and services.